createdAt,value
2017-09-22T00:02:21.585Z,9.10
2017-09-22T00:04:48.916Z,8.63
2017-09-22T00:07:16.332Z,6.73
2017-09-22T00:09:43.706Z,6.20
2017-09-22T00:12:11.063Z,7.30
2017-09-22T00:14:38.447Z,6.73
2017-09-22T00:17:05.783Z,6.23
2017-09-22T00:19:33.226Z,8.23
2017-09-22T00:22:00.693Z,8.50
2017-09-22T00:27:02.291Z,8.00
2017-09-22T00:29:29.623Z,7.20
2017-09-22T00:31:56.951Z,6.27
2017-09-22T00:34:24.345Z,7.40
2017-09-22T00:36:51.673Z,7.03
2017-09-22T00:39:19.151Z,7.77
2017-09-22T00:41:46.698Z,8.43
2017-09-22T00:44:14.037Z,6.17
2017-09-22T00:46:41.429Z,6.30
2017-09-22T00:49:08.845Z,6.80
2017-09-22T00:51:36.322Z,7.13
2017-09-22T00:54:03.693Z,6.20
2017-09-22T00:56:31.079Z,5.50
2017-09-22T00:58:58.572Z,7.20
2017-09-22T01:01:26.033Z,5.97
2017-09-22T01:03:53.393Z,6.93
2017-09-22T01:06:20.772Z,7.03
2017-09-22T01:08:48.297Z,9.90
2017-09-22T01:11:15.855Z,9.23
2017-09-22T01:13:43.385Z,7.10
2017-09-22T01:16:10.775Z,7.00
2017-09-22T01:18:38.274Z,5.57
2017-09-22T01:21:05.679Z,5.70
2017-09-22T01:23:33.093Z,7.07
2017-09-22T01:26:00.486Z,6.13
2017-09-22T01:28:28.015Z,5.90
2017-09-22T01:30:55.501Z,6.70
2017-09-22T01:33:22.896Z,7.00
2017-09-22T01:35:50.222Z,6.37
2017-09-22T01:38:17.622Z,7.03
2017-09-22T01:40:45.024Z,7.90
2017-09-22T01:43:12.395Z,6.57
2017-09-22T01:45:39.775Z,7.57
2017-09-22T01:48:07.252Z,5.73
2017-09-22T01:50:34.645Z,6.77
2017-09-22T01:53:02.089Z,6.10
2017-09-22T01:55:29.487Z,6.03
2017-09-22T01:57:57.051Z,6.03
2017-09-22T02:00:24.543Z,6.60
2017-09-22T02:02:51.996Z,6.90
2017-09-22T02:05:19.670Z,7.13
2017-09-22T02:07:47.148Z,6.47
2017-09-22T02:10:14.682Z,6.30
2017-09-22T02:12:42.026Z,6.63
2017-09-22T02:15:09.470Z,7.70
2017-09-22T02:17:37.650Z,7.70
2017-09-22T02:20:05.070Z,6.30
2017-09-22T02:22:32.514Z,11.13
2017-09-22T02:24:59.936Z,8.80
2017-09-22T02:27:27.648Z,7.57
2017-09-22T02:29:55.506Z,7.13
2017-09-22T02:32:23.008Z,7.80
2017-09-22T02:34:50.403Z,6.43
2017-09-22T02:37:17.828Z,7.07
2017-09-22T02:39:45.141Z,8.37
2017-09-22T02:42:12.589Z,7.70
2017-09-22T02:44:39.995Z,6.67
2017-09-22T02:47:07.468Z,7.10
2017-09-22T02:49:34.884Z,6.60
2017-09-22T02:52:02.271Z,7.10
2017-09-22T02:54:29.667Z,7.30
2017-09-22T02:56:57.293Z,6.60
2017-09-22T02:59:24.738Z,7.27
2017-09-22T03:01:52.182Z,8.03
2017-09-22T03:04:19.761Z,7.37
2017-09-22T03:06:47.151Z,6.27
2017-09-22T03:09:14.573Z,7.30
2017-09-22T03:11:42.096Z,6.80
2017-09-22T03:14:09.516Z,6.37
2017-09-22T03:16:37.107Z,7.87
2017-09-22T03:19:04.567Z,6.70
2017-09-22T03:21:32.253Z,8.10
2017-09-22T03:24:00.430Z,6.67
2017-09-22T03:26:28.162Z,6.80
2017-09-22T03:28:56.213Z,8.33
2017-09-22T03:31:23.653Z,6.50
2017-09-22T03:33:51.061Z,6.90
2017-09-22T03:36:18.711Z,7.13
2017-09-22T03:38:46.127Z,6.90
2017-09-22T03:41:13.743Z,6.90
2017-09-22T03:43:41.187Z,8.27
2017-09-22T03:46:08.610Z,8.43
2017-09-22T03:48:36.976Z,7.20
2017-09-22T03:51:05.601Z,8.07
2017-09-22T03:53:33.150Z,7.30
2017-09-22T03:56:00.499Z,8.33
2017-09-22T03:58:27.928Z,7.00
2017-09-22T04:00:55.518Z,7.03
2017-09-22T04:03:22.987Z,8.87
2017-09-22T04:05:50.385Z,9.33
2017-09-22T04:10:59.282Z,6.93
2017-09-22T04:13:26.680Z,6.67
2017-09-22T04:15:54.062Z,6.90
2017-09-22T04:18:21.500Z,6.60
2017-09-22T04:20:48.922Z,8.10
2017-09-22T04:23:16.459Z,8.50
2017-09-22T04:25:43.893Z,7.60
2017-09-22T04:28:11.273Z,7.13
2017-09-22T04:30:38.765Z,7.10
2017-09-22T04:33:06.088Z,8.03
2017-09-22T04:35:33.608Z,7.53
2017-09-22T04:38:01.080Z,7.80
2017-09-22T04:40:28.675Z,8.40
2017-09-22T04:42:56.149Z,8.40
2017-09-22T04:45:24.050Z,7.20
2017-09-22T04:47:51.577Z,7.63
2017-09-22T04:50:20.044Z,7.63
2017-09-22T04:52:47.671Z,9.70
2017-09-22T04:55:15.609Z,8.67
2017-09-22T04:57:43.180Z,6.90
2017-09-22T05:00:10.841Z,7.20
2017-09-22T05:02:38.393Z,7.93
2017-09-22T05:05:12.346Z,9.03
2017-09-22T05:07:42.036Z,9.50
2017-09-22T05:10:09.502Z,8.90
2017-09-22T05:12:37.035Z,9.10
2017-09-22T05:15:04.558Z,8.70
2017-09-22T05:17:32.313Z,8.57
2017-09-22T05:20:00.137Z,9.53
2017-09-22T05:22:27.523Z,9.70
2017-09-22T05:24:54.890Z,10.67
2017-09-22T05:27:22.440Z,10.50
2017-09-22T05:29:50.225Z,10.10
2017-09-22T05:32:18.542Z,10.00
2017-09-22T05:34:45.978Z,9.40
2017-09-22T05:37:14.248Z,9.67
2017-09-22T05:39:41.715Z,10.03
2017-09-22T05:42:09.136Z,10.37
2017-09-22T05:44:37.993Z,10.70
2017-09-22T05:47:06.199Z,9.77
2017-09-22T05:49:33.639Z,10.00
2017-09-22T05:52:01.010Z,9.03
2017-09-22T05:54:28.499Z,10.40
2017-09-22T05:56:55.959Z,11.40
2017-09-22T05:59:23.499Z,9.87
2017-09-22T06:01:51.116Z,8.63
2017-09-22T06:04:18.498Z,9.40
2017-09-22T06:06:46.026Z,8.20
2017-09-22T06:09:13.594Z,8.23
2017-09-22T06:11:41.333Z,8.60
2017-09-22T06:14:08.738Z,8.60
2017-09-22T06:16:36.061Z,8.90
2017-09-22T06:19:03.526Z,9.73
2017-09-22T06:21:31.176Z,8.90
2017-09-22T06:23:58.551Z,7.73
2017-09-22T06:26:25.927Z,11.07
2017-09-22T06:28:53.294Z,8.77
2017-09-22T06:31:20.733Z,10.93
2017-09-22T06:33:48.347Z,9.70
2017-09-22T06:36:15.750Z,9.20
2017-09-22T06:38:43.314Z,10.50
2017-09-22T06:41:10.840Z,9.70
2017-09-22T06:43:38.256Z,11.93
2017-09-22T06:46:05.776Z,10.63
2017-09-22T06:48:33.169Z,10.20
2017-09-22T06:51:00.513Z,10.60
2017-09-22T06:53:27.954Z,9.53
2017-09-22T06:55:55.456Z,9.47
2017-09-22T06:58:22.938Z,11.13
2017-09-22T07:00:50.569Z,21.57
2017-09-22T07:03:17.980Z,11.50
2017-09-22T07:05:45.532Z,9.07
2017-09-22T07:08:13.103Z,7.23
2017-09-22T07:10:40.498Z,8.10
2017-09-22T07:13:08.048Z,8.10
2017-09-22T07:15:35.353Z,13.33
2017-09-22T07:18:02.840Z,21.63
2017-09-22T07:20:30.269Z,18.90
2017-09-22T07:22:57.635Z,20.00
2017-09-22T07:25:25.086Z,12.43
2017-09-22T07:27:52.452Z,11.80
2017-09-22T07:30:19.807Z,10.40
2017-09-22T07:32:48.215Z,10.10
2017-09-22T07:35:15.709Z,10.67
2017-09-22T07:37:43.101Z,12.17
2017-09-22T07:40:10.444Z,20.23
2017-09-22T07:42:38.209Z,11.90
2017-09-22T07:45:05.618Z,10.77
2017-09-22T07:47:33.092Z,10.63
2017-09-22T07:50:00.515Z,11.70
2017-09-22T07:52:27.873Z,11.00
2017-09-22T07:54:55.280Z,10.50
2017-09-22T07:57:22.831Z,12.10
2017-09-22T07:59:50.258Z,11.40
2017-09-22T08:02:17.633Z,11.07
2017-09-22T08:04:45.038Z,14.27
2017-09-22T08:07:12.331Z,16.30
2017-09-22T08:09:39.603Z,15.20
2017-09-22T08:12:06.899Z,15.70
2017-09-22T08:14:34.205Z,13.30
2017-09-22T08:17:01.527Z,13.70
2017-09-22T08:19:28.832Z,11.87
2017-09-22T08:21:56.154Z,12.63
2017-09-22T08:24:23.450Z,11.73
2017-09-22T08:26:50.791Z,11.87
2017-09-22T08:29:18.066Z,13.80
2017-09-22T08:31:45.351Z,13.63
2017-09-22T08:34:12.668Z,13.10
2017-09-22T08:36:40.094Z,14.03
2017-09-22T08:39:07.415Z,11.83
2017-09-22T08:41:34.730Z,12.57
2017-09-22T08:44:02.160Z,14.80
2017-09-22T08:46:29.459Z,15.23
2017-09-22T08:48:56.733Z,15.57
2017-09-22T08:51:24.008Z,14.53
2017-09-22T08:53:51.347Z,16.00
2017-09-22T08:56:18.658Z,15.90
2017-09-22T08:58:45.924Z,15.77
2017-09-22T09:01:13.318Z,14.23
2017-09-22T09:03:40.616Z,17.43
2017-09-22T09:06:07.928Z,17.30
2017-09-22T09:08:35.278Z,13.40
2017-09-22T09:11:02.546Z,15.33
2017-09-22T09:13:29.842Z,15.97
2017-09-22T09:15:57.120Z,16.80
2017-09-22T09:18:24.414Z,16.57
2017-09-22T09:20:51.780Z,17.17
2017-09-22T09:23:19.133Z,17.43
2017-09-22T09:25:46.455Z,16.57
2017-09-22T09:28:13.711Z,18.30
2017-09-22T09:30:40.983Z,16.33
2017-09-22T09:33:08.331Z,18.67
2017-09-22T09:35:35.631Z,18.03
2017-09-22T09:38:02.972Z,16.53
2017-09-22T09:40:30.251Z,16.53
2017-09-22T09:42:57.642Z,15.73
2017-09-22T09:45:24.914Z,16.97
2017-09-22T09:47:52.228Z,15.47
2017-09-22T09:50:19.516Z,16.10
2017-09-22T09:52:46.835Z,15.60
2017-09-22T09:55:14.108Z,13.83
2017-09-22T09:57:41.377Z,14.50
2017-09-22T10:00:08.679Z,14.13
2017-09-22T10:02:36.015Z,13.27
2017-09-22T10:05:03.316Z,14.00
2017-09-22T10:07:30.636Z,15.03
2017-09-22T10:09:58.074Z,14.80
2017-09-22T10:12:25.383Z,14.07
2017-09-22T10:14:52.736Z,16.33
2017-09-22T10:17:20.079Z,23.23
2017-09-22T10:19:47.450Z,18.80
2017-09-22T10:22:14.726Z,15.97
2017-09-22T10:24:42.071Z,14.43
2017-09-22T10:27:09.541Z,15.40
2017-09-22T10:29:36.857Z,16.40
2017-09-22T10:32:04.192Z,14.40
2017-09-22T11:59:28.527Z,12.00
2017-09-22T12:01:56.008Z,13.37
2017-09-22T12:04:23.996Z,14.07
2017-09-22T12:06:51.811Z,13.83
2017-09-22T12:09:19.154Z,12.43
2017-09-22T12:11:46.710Z,12.80
2017-09-22T12:14:14.643Z,14.00
2017-09-22T12:16:41.956Z,15.47
2017-09-22T12:19:09.550Z,14.00
2017-09-22T12:21:36.883Z,12.80
2017-09-22T12:24:04.239Z,12.53
2017-09-22T12:26:31.592Z,13.70
2017-09-22T12:28:58.898Z,12.67
2017-09-22T12:31:26.219Z,13.17
2017-09-22T12:33:53.535Z,12.30
2017-09-22T12:36:20.830Z,9.93
2017-09-22T12:38:48.159Z,13.43
2017-09-22T12:41:15.524Z,14.20
2017-09-22T12:43:42.831Z,14.83
2017-09-22T12:46:10.128Z,15.03
2017-09-22T12:48:37.436Z,16.70
2017-09-22T12:51:04.740Z,18.10
2017-09-22T12:53:32.035Z,18.00
2017-09-22T12:55:59.343Z,18.17
2017-09-22T12:58:26.639Z,19.17
2017-09-22T13:00:53.966Z,18.00
2017-09-22T13:03:21.292Z,17.13
2017-09-22T13:05:48.603Z,15.33
2017-09-22T13:08:15.871Z,15.57
2017-09-22T13:10:43.187Z,16.17
2017-09-22T13:13:10.455Z,16.13
2017-09-22T13:15:37.782Z,14.83
2017-09-22T13:18:05.077Z,15.00
2017-09-22T13:20:32.381Z,16.20
2017-09-22T13:22:59.815Z,14.70
2017-09-22T13:25:27.102Z,14.70
2017-09-22T13:27:54.408Z,16.07
2017-09-22T13:30:21.705Z,15.77
2017-09-22T13:32:48.976Z,21.30
2017-09-22T13:35:16.300Z,20.50
2017-09-22T13:37:43.587Z,18.63
2017-09-22T13:40:10.892Z,15.30
2017-09-22T13:42:38.195Z,15.70
2017-09-22T13:45:05.516Z,17.47
2017-09-22T13:47:32.803Z,17.60
2017-09-22T13:50:00.135Z,16.03
2017-09-22T13:52:27.417Z,15.93
2017-09-22T13:54:54.728Z,15.97
2017-09-22T13:57:22.012Z,13.90
2017-09-22T13:59:49.316Z,14.07
2017-09-22T14:02:16.595Z,13.50
2017-09-22T14:04:43.911Z,14.30
2017-09-22T14:07:11.197Z,11.50
2017-09-22T14:09:38.499Z,13.23
2017-09-22T14:12:05.787Z,12.30
2017-09-22T14:14:33.097Z,10.97
2017-09-22T14:17:00.798Z,9.20
2017-09-22T14:19:28.135Z,9.10
2017-09-22T14:21:55.401Z,7.70
2017-09-22T14:24:22.707Z,8.50
2017-09-22T14:26:49.979Z,11.43
2017-09-22T14:29:17.274Z,10.93
2017-09-22T14:31:44.562Z,10.57
2017-09-22T14:34:11.847Z,9.87
2017-09-22T14:36:39.207Z,11.80
2017-09-22T14:39:06.487Z,10.50
2017-09-22T14:41:33.783Z,11.23
2017-09-22T14:44:01.059Z,11.07
2017-09-22T14:46:28.355Z,11.30
2017-09-22T14:48:55.672Z,10.80
2017-09-22T14:51:22.996Z,9.50
2017-09-22T14:53:50.276Z,11.10
2017-09-22T14:56:17.574Z,10.93
2017-09-22T14:58:44.888Z,11.53
2017-09-22T15:01:12.223Z,10.00
2017-09-22T15:03:39.491Z,9.70
2017-09-22T15:06:06.831Z,10.47
2017-09-22T15:08:34.111Z,9.57
2017-09-22T15:11:01.427Z,10.70
2017-09-22T15:13:28.718Z,9.70
2017-09-22T15:15:56.007Z,9.40
2017-09-22T15:18:23.314Z,8.03
2017-09-22T15:20:50.595Z,7.00
2017-09-22T15:23:17.866Z,10.93
2017-09-22T15:25:45.182Z,12.13
2017-09-22T15:28:12.469Z,10.27
2017-09-22T15:30:39.780Z,8.70
2017-09-22T15:33:07.048Z,7.63
2017-09-22T15:35:34.345Z,7.07
2017-09-22T15:38:01.626Z,5.97
2017-09-22T15:40:28.943Z,7.80
2017-09-22T15:42:56.227Z,6.70
2017-09-22T15:45:23.514Z,6.40
2017-09-22T15:47:50.818Z,7.07
2017-09-22T15:50:18.095Z,7.23
2017-09-22T15:52:45.426Z,6.40
2017-09-22T15:55:12.712Z,7.00
2017-09-22T15:57:40.016Z,6.53
2017-09-22T16:00:07.265Z,8.07
2017-09-22T16:02:34.598Z,6.80
2017-09-22T16:05:01.869Z,7.70
2017-09-22T16:07:29.168Z,7.80
2017-09-22T16:09:56.445Z,7.50
2017-09-22T16:12:23.742Z,6.63
2017-09-22T16:14:51.035Z,7.30
2017-09-22T16:17:18.360Z,8.57
2017-09-22T16:19:45.636Z,7.40
2017-09-22T16:22:12.981Z,7.40
2017-09-22T16:24:40.255Z,7.10
2017-09-22T16:27:07.598Z,7.73
2017-09-22T16:29:34.987Z,7.50
2017-09-22T16:32:02.302Z,7.80
2017-09-22T16:34:29.582Z,7.87
2017-09-22T16:36:56.880Z,7.63
2017-09-22T16:39:24.169Z,7.20
2017-09-22T16:41:51.475Z,8.40
2017-09-22T16:44:18.759Z,8.90
2017-09-22T16:46:46.231Z,11.30
2017-09-22T16:49:13.539Z,7.97
2017-09-22T16:51:40.868Z,8.13
2017-09-22T16:54:08.156Z,8.13
2017-09-22T16:56:35.480Z,7.30
2017-09-22T16:59:02.757Z,7.27
2017-09-22T17:01:30.093Z,7.10
2017-09-22T17:03:57.380Z,7.80
2017-09-22T17:06:24.680Z,9.07
2017-09-22T17:08:51.981Z,8.13
2017-09-22T17:11:19.292Z,7.40
2017-09-22T17:13:46.599Z,7.20
2017-09-22T17:16:13.899Z,8.17
2017-09-22T17:18:41.210Z,8.83
2017-09-22T17:21:08.507Z,7.27
2017-09-22T17:23:35.804Z,8.40
2017-09-22T17:26:03.108Z,7.20
2017-09-22T17:28:30.404Z,8.40
2017-09-22T17:30:57.686Z,8.50
2017-09-22T17:33:25.030Z,7.90
2017-09-22T17:35:52.294Z,8.53
2017-09-22T17:38:19.593Z,7.40
2017-09-22T17:40:46.912Z,8.80
2017-09-22T17:43:14.224Z,7.60
2017-09-22T17:45:41.548Z,9.67
2017-09-22T17:48:08.860Z,8.50
2017-09-22T17:50:36.136Z,8.60
2017-09-22T17:53:03.484Z,8.40
2017-09-22T17:55:30.763Z,7.97
2017-09-22T17:57:58.100Z,7.93
2017-09-22T18:00:25.380Z,8.60
2017-09-22T18:02:52.688Z,8.40
2017-09-22T18:05:20.370Z,9.57
2017-09-22T18:07:47.688Z,9.20
2017-09-22T18:10:16.656Z,9.87
2017-09-22T18:12:44.314Z,8.20
2017-09-22T18:15:11.587Z,8.70
2017-09-22T18:17:38.912Z,9.20
2017-09-22T18:20:06.226Z,9.00
2017-09-22T18:22:33.521Z,10.37
2017-09-22T18:25:00.819Z,7.83
2017-09-22T18:27:28.128Z,7.97
2017-09-22T18:29:55.454Z,9.23
2017-09-22T18:32:22.748Z,9.30
2017-09-22T18:34:50.090Z,10.27
2017-09-22T18:37:17.428Z,10.13
2017-09-22T18:39:44.739Z,10.67
2017-09-22T18:42:13.896Z,8.87
2017-09-22T18:44:41.279Z,10.77
2017-09-22T18:47:08.579Z,9.10
2017-09-22T18:49:37.110Z,10.10
2017-09-22T18:52:05.240Z,9.47
2017-09-22T18:54:32.612Z,9.30
2017-09-22T18:57:00.997Z,10.63
2017-09-22T18:59:28.511Z,10.17
2017-09-22T19:01:56.006Z,11.63
2017-09-22T19:04:23.317Z,8.37
2017-09-22T19:06:50.656Z,9.10
2017-09-22T19:09:17.967Z,9.23
2017-09-22T19:11:45.343Z,9.57
2017-09-22T19:14:12.655Z,8.67
2017-09-22T19:16:40.149Z,9.03
2017-09-22T19:19:07.507Z,10.50
2017-09-22T19:21:35.219Z,9.30
2017-09-22T19:24:02.593Z,12.77
2017-09-22T19:26:29.888Z,11.37
2017-09-22T19:28:58.075Z,9.93
2017-09-22T19:31:26.391Z,10.70
2017-09-22T19:33:53.764Z,9.70
2017-09-22T19:36:21.159Z,10.60
2017-09-22T19:38:55.877Z,10.60
2017-09-22T19:41:24.524Z,9.80
2017-09-22T19:43:51.932Z,13.10
2017-09-22T19:46:19.268Z,12.20
2017-09-22T19:48:46.587Z,10.20
2017-09-22T19:51:13.945Z,9.50
2017-09-22T19:53:41.247Z,11.20
2017-09-22T19:56:08.603Z,9.57
2017-09-22T19:58:35.953Z,10.20
2017-09-22T20:01:03.277Z,10.60
2017-09-22T20:03:30.737Z,10.30
2017-09-22T20:05:58.078Z,10.00
2017-09-22T20:08:25.380Z,11.80
2017-09-22T20:10:52.757Z,11.90
2017-09-22T20:13:20.042Z,10.00
2017-09-22T20:15:47.416Z,11.73
2017-09-22T20:18:14.707Z,11.30
2017-09-22T20:20:42.049Z,13.53
2017-09-22T20:23:09.363Z,10.70
2017-09-22T20:25:36.677Z,11.10
2017-09-22T20:28:03.965Z,13.97
2017-09-22T20:30:31.339Z,14.17
2017-09-22T20:32:58.637Z,12.70
2017-09-22T20:35:25.960Z,12.40
2017-09-22T20:37:53.245Z,13.20
2017-09-22T20:40:20.567Z,14.17
2017-09-22T20:42:47.927Z,10.37
2017-09-22T20:45:15.257Z,11.00
2017-09-22T20:47:42.552Z,14.90
2017-09-22T20:50:09.874Z,14.00
2017-09-22T20:52:37.178Z,10.63
2017-09-22T20:55:04.524Z,10.17
2017-09-22T20:57:31.844Z,11.70
2017-09-22T20:59:59.163Z,11.17
2017-09-22T21:02:26.456Z,11.67
2017-09-22T21:04:53.791Z,12.70
2017-09-22T21:07:21.125Z,11.40
2017-09-22T21:09:48.416Z,12.00
2017-09-22T21:12:15.730Z,12.40
2017-09-22T21:14:43.034Z,11.20
2017-09-22T21:17:10.352Z,11.37
2017-09-22T21:19:37.636Z,11.33
2017-09-22T21:22:04.969Z,10.60
2017-09-22T21:24:32.251Z,13.30
2017-09-22T21:26:59.586Z,11.27
2017-09-22T21:29:26.905Z,10.90
2017-09-22T21:31:54.228Z,10.60
2017-09-22T21:34:21.570Z,12.03
2017-09-22T21:36:48.879Z,11.20
2017-09-22T21:39:16.187Z,10.93
2017-09-22T21:41:43.490Z,12.30
2017-09-22T21:44:10.832Z,9.73
2017-09-22T21:46:38.160Z,15.80
2017-09-22T21:49:05.448Z,12.80
2017-09-22T21:51:32.840Z,12.83
2017-09-22T21:54:00.168Z,11.80
2017-09-22T21:56:27.527Z,10.03
2017-09-22T21:58:54.831Z,12.70
2017-09-22T22:01:22.163Z,9.23
2017-09-22T22:03:55.244Z,11.93
2017-09-22T22:06:28.226Z,11.33
2017-09-22T22:09:01.406Z,11.63
2017-09-22T22:11:28.741Z,10.37
2017-09-22T22:13:56.143Z,12.80
2017-09-22T22:16:23.461Z,11.80
2017-09-22T22:18:50.763Z,12.37
2017-09-22T22:21:18.119Z,11.07
2017-09-22T22:23:45.435Z,10.77
2017-09-22T22:26:12.769Z,10.30
2017-09-22T22:28:40.098Z,9.77
2017-09-22T22:31:07.455Z,9.53
2017-09-22T22:33:34.734Z,11.30
2017-09-22T22:36:02.060Z,11.47
2017-09-22T22:38:29.427Z,11.73
2017-09-22T22:40:56.727Z,11.60
2017-09-22T22:43:24.080Z,12.80
2017-09-22T22:45:51.367Z,10.73
2017-09-22T22:48:18.690Z,13.50
2017-09-22T22:50:46.017Z,12.60
2017-09-22T22:53:13.374Z,12.50
2017-09-22T22:55:40.713Z,12.67
2017-09-22T22:58:08.024Z,11.30
2017-09-22T23:00:35.395Z,12.50
2017-09-22T23:03:02.769Z,10.97
2017-09-22T23:05:30.063Z,16.00
2017-09-22T23:07:57.410Z,11.90
2017-09-22T23:10:24.752Z,10.47
2017-09-22T23:12:52.112Z,13.30
2017-09-22T23:15:19.430Z,12.00
2017-09-22T23:17:47.089Z,12.43
2017-09-22T23:20:14.383Z,11.70
2017-09-22T23:22:41.765Z,13.20
2017-09-22T23:25:09.138Z,12.27
2017-09-22T23:27:36.494Z,13.03
2017-09-22T23:30:03.820Z,14.20
2017-09-22T23:32:31.159Z,14.67
2017-09-22T23:34:58.462Z,11.47
2017-09-22T23:37:25.840Z,13.50
2017-09-22T23:39:53.257Z,14.80
2017-09-22T23:42:20.564Z,13.60
2017-09-22T23:44:47.908Z,13.50
2017-09-22T23:47:15.293Z,13.17
2017-09-22T23:49:42.629Z,12.30
2017-09-22T23:52:09.993Z,12.77
2017-09-22T23:54:37.473Z,15.10
2017-09-22T23:57:04.745Z,14.70
2017-09-22T23:59:32.119Z,16.33
